createdAt,value
2018-05-26T00:01:21.305Z,15.94
2018-05-26T00:03:49.240Z,15.90
2018-05-26T00:06:16.660Z,15.85
2018-05-26T00:08:44.051Z,15.70
2018-05-26T00:11:11.457Z,15.59
2018-05-26T00:13:38.925Z,15.63
2018-05-26T00:16:06.324Z,15.65
2018-05-26T00:18:33.720Z,15.67
2018-05-26T00:21:01.373Z,15.72
2018-05-26T00:23:28.799Z,15.84
2018-05-26T00:25:56.212Z,15.91
2018-05-26T00:28:23.604Z,15.97
2018-05-26T00:30:52.403Z,16.15
2018-05-26T00:33:19.790Z,16.15
2018-05-26T00:35:47.197Z,16.06
2018-05-26T00:38:14.629Z,15.86
2018-05-26T00:40:42.019Z,15.69
2018-05-26T00:43:09.428Z,15.71
2018-05-26T00:45:36.838Z,15.68
2018-05-26T00:48:04.249Z,15.76
2018-05-26T00:50:31.660Z,15.85
2018-05-26T00:52:59.065Z,15.90
2018-05-26T00:55:26.460Z,15.93
2018-05-26T00:57:53.863Z,15.95
2018-05-26T01:00:22.106Z,16.05
2018-05-26T01:02:49.522Z,15.94
2018-05-26T01:05:16.920Z,15.80
2018-05-26T01:07:44.326Z,15.74
2018-05-26T01:10:11.715Z,15.48
2018-05-26T01:12:39.238Z,15.47
2018-05-26T01:15:06.895Z,15.56
2018-05-26T01:17:34.292Z,15.62
2018-05-26T01:20:01.696Z,15.61
2018-05-26T01:22:29.103Z,15.52
2018-05-26T01:24:56.500Z,15.54
2018-05-26T01:27:23.897Z,15.71
2018-05-26T01:29:51.289Z,15.78
2018-05-26T01:32:18.799Z,15.86
2018-05-26T01:34:46.196Z,15.98
2018-05-26T01:37:13.615Z,15.91
2018-05-26T01:39:41.012Z,15.76
2018-05-26T01:42:09.029Z,15.60
2018-05-26T01:44:36.451Z,15.41
2018-05-26T01:47:03.985Z,15.38
2018-05-26T01:49:32.265Z,15.31
2018-05-26T01:51:59.667Z,15.21
2018-05-26T01:54:27.068Z,14.91
2018-05-26T01:56:54.643Z,14.90
2018-05-26T01:59:22.255Z,14.88
2018-05-26T02:01:50.590Z,14.82
2018-05-26T02:04:18.089Z,14.89
2018-05-26T02:06:45.520Z,15.02
2018-05-26T02:09:12.928Z,15.04
2018-05-26T02:11:41.015Z,14.89
2018-05-26T02:14:08.571Z,14.83
2018-05-26T02:16:35.976Z,14.69
2018-05-26T02:19:03.389Z,14.55
2018-05-26T02:21:30.783Z,14.61
2018-05-26T02:23:58.200Z,14.62
2018-05-26T02:26:25.588Z,14.63
2018-05-26T02:28:53.001Z,14.70
2018-05-26T02:31:20.409Z,14.68
2018-05-26T02:33:48.608Z,14.65
2018-05-26T02:36:16.011Z,14.64
2018-05-26T02:38:47.643Z,14.73
2018-05-26T02:41:15.036Z,14.81
2018-05-26T02:43:42.472Z,14.84
2018-05-26T02:46:09.867Z,14.90
2018-05-26T02:48:37.263Z,14.74
2018-05-26T02:51:04.677Z,14.64
2018-05-26T02:53:32.086Z,14.56
2018-05-26T02:56:01.468Z,14.63
2018-05-26T02:58:28.874Z,14.59
2018-05-26T03:00:57.220Z,14.49
2018-05-26T03:03:24.631Z,14.37
2018-05-26T03:05:58.453Z,14.20
2018-05-26T03:08:31.564Z,14.24
2018-05-26T03:11:04.522Z,14.37
2018-05-26T03:13:37.607Z,14.45
2018-05-26T03:19:08.639Z,14.98
2018-05-26T03:21:36.055Z,15.06
2018-05-26T03:24:03.455Z,14.98
2018-05-26T03:26:30.843Z,14.91
2018-05-26T03:28:59.440Z,14.78
2018-05-26T03:31:26.828Z,14.66
2018-05-26T03:33:54.224Z,14.67
2018-05-26T03:36:21.688Z,14.49
2018-05-26T03:38:49.037Z,14.54
2018-05-26T03:41:16.423Z,14.65
2018-05-26T03:43:43.840Z,14.73
2018-05-26T03:46:11.245Z,14.73
2018-05-26T03:48:38.701Z,14.77
2018-05-26T03:51:06.117Z,14.78
2018-05-26T03:53:33.506Z,14.81
2018-05-26T03:56:12.859Z,14.84
2018-05-26T03:58:52.445Z,14.98
2018-05-26T04:01:19.828Z,15.17
2018-05-26T04:03:47.230Z,15.35
2018-05-26T04:06:14.724Z,15.38
2018-05-26T04:08:42.147Z,15.42
2018-05-26T04:11:09.562Z,15.30
2018-05-26T04:13:36.957Z,15.49
2018-05-26T04:16:04.731Z,15.71
2018-05-26T04:18:32.447Z,16.00
2018-05-26T04:20:59.843Z,16.28
2018-05-26T04:23:27.496Z,16.88
2018-05-26T04:25:54.904Z,17.58
2018-05-26T04:28:22.305Z,18.01
2018-05-26T04:30:49.921Z,17.99
2018-05-26T04:33:17.369Z,17.81
2018-05-26T04:35:45.546Z,17.51
2018-05-26T04:38:12.933Z,17.33
2018-05-26T04:40:40.477Z,17.29
2018-05-26T04:43:08.333Z,17.25
2018-05-26T04:45:35.722Z,17.34
2018-05-26T04:48:03.216Z,17.38
2018-05-26T04:50:30.685Z,17.40
2018-05-26T04:52:58.073Z,17.51
2018-05-26T04:55:25.493Z,17.45
2018-05-26T04:57:53.180Z,17.18
2018-05-26T05:00:20.584Z,17.22
2018-05-26T05:02:47.977Z,17.40
2018-05-26T05:05:15.387Z,17.39
2018-05-26T05:07:42.788Z,17.20
2018-05-26T05:10:11.095Z,16.89
2018-05-26T05:12:38.524Z,16.85
2018-05-26T05:15:07.232Z,17.06
2018-05-26T05:17:34.619Z,17.26
2018-05-26T05:20:02.042Z,17.56
2018-05-26T05:22:30.448Z,17.90
2018-05-26T05:24:57.839Z,18.47
2018-05-26T05:27:25.244Z,19.15
2018-05-26T05:29:52.624Z,19.63
2018-05-26T05:32:20.056Z,19.91
2018-05-26T05:34:47.451Z,20.09
2018-05-26T05:37:14.847Z,20.16
2018-05-26T05:39:42.232Z,20.61
2018-05-26T05:42:09.644Z,20.86
2018-05-26T05:44:37.035Z,21.06
2018-05-26T05:47:04.446Z,21.39
2018-05-26T05:49:31.900Z,21.42
2018-05-26T05:51:59.302Z,21.27
2018-05-26T05:54:26.687Z,22.18
2018-05-26T05:56:54.092Z,21.89
2018-05-26T05:59:21.488Z,22.51
2018-05-26T06:01:48.896Z,22.92
2018-05-26T06:04:16.293Z,23.83
2018-05-26T06:06:43.712Z,24.46
2018-05-26T06:09:11.747Z,24.70
2018-05-26T06:11:39.148Z,23.17
2018-05-26T06:14:06.575Z,22.70
2018-05-26T06:16:33.958Z,21.61
2018-05-26T06:19:01.353Z,20.72
2018-05-26T06:21:28.756Z,19.59
2018-05-26T06:23:56.164Z,19.46
2018-05-26T06:26:23.578Z,19.64
2018-05-26T06:28:50.969Z,19.53
2018-05-26T06:31:19.096Z,19.92
2018-05-26T06:33:46.498Z,20.88
2018-05-26T06:36:13.887Z,21.15
2018-05-26T06:38:41.324Z,19.97
2018-05-26T06:41:09.139Z,19.28
2018-05-26T06:43:38.888Z,19.08
2018-05-26T06:46:06.263Z,19.27
2018-05-26T06:48:34.605Z,19.40
2018-05-26T06:51:01.997Z,19.37
2018-05-26T06:53:29.472Z,19.44
2018-05-26T06:55:56.871Z,19.58
2018-05-26T06:58:24.282Z,19.64
2018-05-26T07:00:51.688Z,19.86
2018-05-26T07:03:19.096Z,19.98
2018-05-26T07:05:46.477Z,20.28
2018-05-26T07:08:13.948Z,20.15
2018-05-26T07:10:41.512Z,20.37
2018-05-26T07:13:08.912Z,20.16
2018-05-26T07:15:36.305Z,20.40
2018-05-26T07:18:03.709Z,20.52
2018-05-26T07:20:31.146Z,20.74
2018-05-26T07:22:58.535Z,21.03
2018-05-26T07:25:25.943Z,21.25
2018-05-26T07:27:53.397Z,20.92
2018-05-26T07:30:21.641Z,20.87
2018-05-26T07:32:49.051Z,20.99
2018-05-26T07:35:16.487Z,21.36
2018-05-26T07:37:43.881Z,21.60
2018-05-26T07:40:11.273Z,21.92
2018-05-26T07:42:38.677Z,21.78
2018-05-26T07:45:07.000Z,21.03
2018-05-26T07:47:34.426Z,21.48
2018-05-26T07:50:01.825Z,21.65
2018-05-26T07:52:30.127Z,21.76
2018-05-26T07:54:57.540Z,21.69
2018-05-26T07:57:26.560Z,21.66
2018-05-26T22:02:39.111Z,19.29
2018-05-26T22:05:06.488Z,19.31
2018-05-26T22:07:33.889Z,19.22
2018-05-26T22:10:01.272Z,19.38
2018-05-26T22:12:28.679Z,19.47
2018-05-26T22:14:56.061Z,19.48
2018-05-26T22:17:23.464Z,19.42
2018-05-26T22:19:50.892Z,19.31
2018-05-26T22:22:18.298Z,19.16
2018-05-26T22:24:45.685Z,19.20
2018-05-26T22:27:13.079Z,19.22
2018-05-26T22:29:40.492Z,19.11
2018-05-26T22:32:07.889Z,18.99
2018-05-26T22:34:35.277Z,18.99
2018-05-26T22:37:02.729Z,18.97
2018-05-26T22:39:30.141Z,18.94
2018-05-26T22:41:57.530Z,18.87
2018-05-26T22:44:24.920Z,18.79
2018-05-26T22:46:52.416Z,18.84
2018-05-26T22:49:19.972Z,18.84
2018-05-26T22:51:47.369Z,18.82
2018-05-26T22:54:14.755Z,18.81
2018-05-26T22:56:43.181Z,18.98
2018-05-26T22:59:10.905Z,18.94
2018-05-26T23:01:38.300Z,18.86
2018-05-26T23:04:05.791Z,18.77
2018-05-26T23:06:33.203Z,18.61
2018-05-26T23:09:00.580Z,18.30
2018-05-26T23:11:27.983Z,18.28
2018-05-26T23:13:55.383Z,18.35
2018-05-26T23:16:22.779Z,18.41
2018-05-26T23:18:50.152Z,18.37
2018-05-26T23:21:17.557Z,18.36
2018-05-26T23:23:45.120Z,18.39
2018-05-26T23:26:12.550Z,18.39
2018-05-26T23:28:39.936Z,18.14
2018-05-26T23:31:07.338Z,18.09
2018-05-26T23:33:34.733Z,18.19
2018-05-26T23:36:02.120Z,18.15
2018-05-26T23:38:29.516Z,18.19
2018-05-26T23:40:57.031Z,18.07
2018-05-26T23:43:24.428Z,17.95
2018-05-26T23:45:51.814Z,17.84
2018-05-26T23:48:19.205Z,17.76
2018-05-26T23:50:46.592Z,17.74
2018-05-26T23:53:13.996Z,17.88
2018-05-26T23:55:41.408Z,17.82
2018-05-26T23:58:08.814Z,17.72
